Time;durP1;ratioP1;P1;durP2;ratioP2;P2;SDS_P1;SDS_P2;PMS_P1;PMS_P2;Temp;Humidity;BMP_temperature;BMP_pressure;BME280_temperature;BME280_humidity;BME280_pressure;Samples;Min_cycle;Max_cycle;Signal;HPM_P1;HPM_P2
2021/05/30 00:00:10;;;;;;;6.32;5.47;;;;;;;9.19;73.94;96070.13;4952099;28;20035;-64
2021/05/30 00:02:35;;;;;;;5.95;5.07;;;;;;;9.09;74.44;96067.53;4953417;28;20027;-64
2021/05/30 00:05:03;;;;;;;6.55;5.07;;;;;;;8.93;75.13;96077.41;4951723;28;20054;-65
2021/05/30 00:07:28;;;;;;;6.13;4.90;;;;;;;8.83;76.04;96057.00;4951662;28;20043;-63
2021/05/30 00:09:54;;;;;;;6.07;5.53;;;;;;;8.84;76.17;96074.50;4951565;28;20118;-63
2021/05/30 00:12:20;;;;;;;5.75;4.68;;;;;;;8.49;77.14;96050.69;4951291;28;20126;-63
2021/05/30 00:14:46;;;;;;;5.45;4.50;;;;;;;8.53;77.37;96071.09;4950413;28;20031;-63
2021/05/30 00:17:13;;;;;;;7.28;4.60;;;;;;;8.76;76.40;96074.28;4953347;28;20501;-63
2021/05/30 00:19:38;;;;;;;5.38;4.80;;;;;;;8.80;75.92;96073.47;4951594;28;20137;-64
2021/05/30 00:22:03;;;;;;;6.55;5.60;;;;;;;8.79;75.08;96063.09;4950957;28;20058;-63
2021/05/30 00:24:29;;;;;;;5.97;4.97;;;;;;;8.85;74.92;96069.97;4951105;28;20517;-64
2021/05/30 00:26:54;;;;;;;6.03;5.43;;;;;;;8.80;75.71;96072.63;4951525;28;20541;-64
2021/05/30 00:29:20;;;;;;;6.28;5.68;;;;;;;8.83;75.68;96072.91;4953185;28;20082;-63
2021/05/30 00:31:46;;;;;;;6.13;5.53;;;;;;;8.83;75.47;96067.59;4951175;28;20090;-63
2021/05/30 00:34:11;;;;;;;7.43;6.28;;;;;;;8.80;75.49;96057.53;4949527;28;20548;-63
2021/05/30 00:36:36;;;;;;;7.97;5.25;;;;;;;8.77;75.77;96058.06;4951198;28;20035;-63
2021/05/30 00:39:03;;;;;;;6.75;5.30;;;;;;;8.79;75.81;96061.25;4951189;28;20516;-65
2021/05/30 00:41:28;;;;;;;5.85;5.35;;;;;;;8.71;75.45;96050.41;4953577;28;20031;-64
2021/05/30 00:43:55;;;;;;;5.43;4.93;;;;;;;8.74;75.57;96063.13;4950363;28;20058;-65
2021/05/30 00:46:21;;;;;;;6.45;4.55;;;;;;;8.70;75.56;96054.09;4950875;28;20054;-65
2021/05/30 00:48:48;;;;;;;7.20;5.30;;;;;;;8.68;75.81;96059.69;4951071;28;20429;-65
2021/05/30 00:51:13;;;;;;;6.10;5.32;;;;;;;8.65;75.90;96057.59;4950972;28;20039;-64
2021/05/30 00:53:42;;;;;;;6.97;4.78;;;;;;;8.55;76.39;96060.25;4950943;28;20031;-64
2021/05/30 00:56:09;;;;;;;6.43;5.07;;;;;;;8.58;75.82;96067.66;4950496;28;20125;-64
2021/05/30 00:58:35;;;;;;;5.85;4.72;;;;;;;8.50;76.10;96049.66;4950703;28;20039;-64
2021/05/30 01:01:01;;;;;;;8.77;4.82;;;;;;;8.47;76.23;96042.22;4950852;28;20039;-64
2021/05/30 01:03:26;;;;;;;5.90;5.30;;;;;;;8.52;76.01;96045.66;4950326;28;20027;-64
2021/05/30 01:05:53;;;;;;;6.30;5.68;;;;;;;8.52;75.68;96050.97;4950280;28;20042;-64
2021/05/30 01:08:26;;;;;;;6.63;5.97;;;;;;;8.54;76.12;96056.78;4952751;28;20097;-64
2021/05/30 01:10:52;;;;;;;6.60;5.88;;;;;;;8.52;75.89;96055.47;4950658;28;20031;-64
2021/05/30 01:13:19;;;;;;;6.07;5.47;;;;;;;8.48;75.92;96057.84;4950081;28;20039;-64
2021/05/30 01:15:47;;;;;;;7.20;6.50;;;;;;;8.47;75.82;96055.47;4949127;28;20095;-64
2021/05/30 01:18:16;;;;;;;8.30;5.72;;;;;;;8.42;76.20;96055.50;4950471;28;20125;-63
2021/05/30 01:20:42;;;;;;;8.63;5.72;;;;;;;8.42;76.23;96058.16;4952401;28;20031;-64
2021/05/30 01:23:10;;;;;;;5.40;4.90;;;;;;;8.41;76.21;96064.50;4949918;28;20098;-64
2021/05/30 01:25:36;;;;;;;6.65;5.63;;;;;;;8.40;76.24;96068.22;4950441;28;20082;-64
2021/05/30 01:28:01;;;;;;;5.55;4.30;;;;;;;8.19;76.50;96032.94;4950514;28;20090;-64
2021/05/30 01:30:27;;;;;;;6.13;4.85;;;;;;;8.29;76.87;96057.59;4950483;28;20047;-65
2021/05/30 01:32:52;;;;;;;4.88;4.38;;;;;;;8.31;76.80;96060.78;4949255;28;20023;-64
2021/05/30 01:35:19;;;;;;;4.43;4.05;;;;;;;8.27;76.70;96065.00;4951903;28;20038;-64
2021/05/30 01:37:44;;;;;;;4.72;4.00;;;;;;;8.24;76.58;96068.22;4950441;28;20027;-63
2021/05/30 01:40:11;;;;;;;5.05;4.55;;;;;;;8.22;76.81;96065.00;4950329;28;20502;-63
2021/05/30 01:42:36;;;;;;;8.93;4.32;;;;;;;8.11;76.50;96052.03;4949888;28;20036;-67
2021/05/30 01:45:03;;;;;;;4.70;4.30;;;;;;;8.15;76.90;96069.00;4948918;28;20084;-63
2021/05/30 01:47:28;;;;;;;4.40;4.00;;;;;;;7.94;76.28;96039.84;4952104;28;20027;-64
2021/05/30 01:49:53;;;;;;;3.83;3.42;;;;;;;8.02;76.68;96057.84;4950267;28;20043;-63
2021/05/30 01:52:19;;;;;;;5.03;4.10;;;;;;;8.03;76.88;96054.13;4948274;28;20101;-63
2021/05/30 01:54:48;;;;;;;5.13;4.53;;;;;;;8.11;76.73;96074.03;4950025;28;20035;-63
2021/05/30 01:57:15;;;;;;;7.32;4.25;;;;;;;8.04;76.43;96066.34;4950075;28;20452;-64
2021/05/30 01:59:43;;;;;;;4.60;3.90;;;;;;;8.07;76.55;96070.31;4951993;28;20023;-63
2021/05/30 02:02:09;;;;;;;4.53;4.03;;;;;;;7.94;77.05;96060.25;4949632;28;20043;-64
2021/05/30 02:04:40;;;;;;;4.13;3.83;;;;;;;7.99;77.03;96071.66;4948627;28;20043;-63
2021/05/30 02:07:07;;;;;;;5.20;4.70;;;;;;;8.01;77.06;96068.72;4950028;28;20035;-63
2021/05/30 02:09:35;;;;;;;4.53;4.13;;;;;;;7.89;76.97;96057.59;4950092;28;20106;-64
2021/05/30 02:12:02;;;;;;;4.10;3.72;;;;;;;7.97;76.52;96076.41;4950104;28;20031;-64
2021/05/30 02:14:27;;;;;;;4.00;3.67;;;;;;;7.92;76.96;96065.00;4951381;28;20067;-64
2021/05/30 02:16:53;;;;;;;4.55;4.15;;;;;;;7.89;76.52;96060.25;4933201;28;20115;-63
2021/05/30 02:19:18;;;;;;;4.00;3.55;;;;;;;7.89;76.24;96070.84;4942916;28;20043;-63
2021/05/30 02:21:52;;;;;;;5.25;4.18;;;;;;;7.88;76.47;96069.22;4950050;28;20641;-63
2021/05/30 02:24:20;;;;;;;6.53;3.95;;;;;;;7.80;76.18;96068.72;4949610;28;20044;-63
2021/05/30 02:26:46;;;;;;;4.28;3.72;;;;;;;7.72;76.88;96073.72;4952027;28;20027;-63
2021/05/30 02:29:24;;;;;;;4.63;3.72;;;;;;;7.72;77.27;96069.22;4931142;28;20137;-64
2021/05/30 02:31:49;;;;;;;6.88;4.85;;;;;;;7.68;76.67;96065.53;4946831;28;20065;-63
2021/05/30 02:34:15;;;;;;;4.38;4.00;;;;;;;7.68;77.51;96077.97;4948233;28;20717;-66
2021/05/30 02:36:40;;;;;;;4.18;3.78;;;;;;;7.66;77.76;96078.22;4948956;28;20335;-64
2021/05/30 02:39:05;;;;;;;4.47;4.07;;;;;;;7.68;77.70;96076.13;4949786;28;20051;-64
2021/05/30 02:41:31;;;;;;;3.90;3.50;;;;;;;7.51;77.55;96078.19;4951757;28;20367;-64
2021/05/30 02:43:56;;;;;;;8.52;4.30;;;;;;;7.46;78.32;96075.50;4949317;28;20031;-64
2021/05/30 02:46:21;;;;;;;5.03;4.45;;;;;;;7.47;78.25;96077.09;4952684;28;20070;-64
2021/05/30 02:48:47;;;;;;;4.75;4.35;;;;;;;7.48;78.10;96081.38;4953185;28;20036;-64
2021/05/30 02:51:12;;;;;;;4.55;3.88;;;;;;;7.40;78.03;96068.63;4953223;28;20094;-64
2021/05/30 02:53:38;;;;;;;4.57;4.20;;;;;;;7.49;77.94;96081.09;4954604;28;20107;-64
2021/05/30 02:56:03;;;;;;;5.60;5.10;;;;;;;7.61;78.02;96088.78;4953056;28;20031;-63
2021/05/30 02:58:29;;;;;;;7.45;5.05;;;;;;;7.73;78.25;96094.66;4952033;28;20040;-64
2021/05/30 03:00:55;;;;;;;8.52;5.40;;;;;;;7.77;77.29;96092.25;4952986;28;20126;-64
2021/05/30 03:03:21;;;;;;;7.68;5.50;;;;;;;7.72;77.13;96081.66;4952267;28;20493;-64
2021/05/30 03:05:47;;;;;;;6.22;5.30;;;;;;;7.72;77.70;96082.44;4952854;28;20051;-64
2021/05/30 03:08:12;;;;;;;7.32;5.47;;;;;;;7.84;76.69;96078.78;4953318;29;20078;-64
2021/05/30 03:10:38;;;;;;;6.90;4.88;;;;;;;7.95;76.71;96093.63;4952941;28;20047;-64
2021/05/30 03:13:03;;;;;;;6.90;5.72;;;;;;;7.88;76.47;96072.69;4952320;28;20047;-63
2021/05/30 03:15:29;;;;;;;9.73;7.90;;;;;;;7.99;76.15;96094.69;4952946;28;20118;-63
2021/05/30 03:17:54;;;;;;;9.35;7.40;;;;;;;7.76;75.77;96093.34;4952803;28;20035;-64
2021/05/30 03:20:20;;;;;;;8.88;6.80;;;;;;;7.76;76.29;96101.28;4954635;28;20055;-64
2021/05/30 03:22:46;;;;;;;6.38;5.63;;;;;;;7.71;75.97;96099.41;4951988;28;20044;-63
2021/05/30 03:25:12;;;;;;;6.10;5.60;;;;;;;7.70;76.92;96111.06;4952407;28;20035;-64
2021/05/30 03:27:39;;;;;;;6.55;5.22;;;;;;;7.71;76.97;96117.16;4952526;28;20036;-64
2021/05/30 03:30:05;;;;;;;5.70;4.88;;;;;;;7.51;77.20;96094.06;4952560;28;20023;-63
2021/05/30 03:32:30;;;;;;;4.78;4.38;;;;;;;7.45;77.47;96103.84;4953795;28;20035;-64
2021/05/30 03:34:56;;;;;;;5.85;4.47;;;;;;;7.39;78.24;96126.06;4952280;28;20054;-63
2021/05/30 03:37:22;;;;;;;5.30;4.53;;;;;;;7.45;77.58;96119.72;4952206;28;20306;-63
2021/05/30 03:39:48;;;;;;;4.93;4.40;;;;;;;7.46;77.92;96126.59;4952291;28;20043;-63
2021/05/30 03:42:19;;;;;;;4.53;4.13;;;;;;;7.42;78.34;96124.72;4951898;28;20041;-64
2021/05/30 03:44:44;;;;;;;5.00;4.60;;;;;;;7.40;78.45;96125.00;4954035;28;20034;-64
2021/05/30 03:47:12;;;;;;;5.95;4.93;;;;;;;7.35;78.40;96111.75;4952364;28;20035;-64
2021/05/30 03:49:41;;;;;;;6.63;5.25;;;;;;;7.48;78.83;96115.78;4952333;28;20079;-64
2021/05/30 03:52:08;;;;;;;5.45;4.95;;;;;;;7.42;79.08;96101.72;4952081;28;20048;-64
2021/05/30 03:54:34;;;;;;;5.50;5.03;;;;;;;7.59;79.38;96122.69;4951966;28;20054;-63
2021/05/30 03:56:59;;;;;;;7.65;5.20;;;;;;;7.81;78.23;96104.72;4951361;28;20023;-64
2021/05/30 03:59:25;;;;;;;5.32;4.88;;;;;;;8.00;77.34;96112.19;4954003;28;20030;-64
2021/05/30 04:01:51;;;;;;;4.95;4.50;;;;;;;8.37;76.99;96119.13;4951889;28;20118;-63
2021/05/30 04:04:16;;;;;;;6.30;4.20;;;;;;;8.81;76.00;96127.31;4951304;28;20040;-63
2021/05/30 04:06:42;;;;;;;3.78;3.47;;;;;;;9.20;75.27;96122.16;4950477;28;20055;-64
2021/05/30 04:09:07;;;;;;;3.33;3.05;;;;;;;9.62;74.03;96120.91;4951770;28;20046;-63
2021/05/30 04:11:32;;;;;;;4.47;2.92;;;;;;;10.05;72.34;96123.88;4953587;28;20031;-64
2021/05/30 04:13:58;;;;;;;4.85;3.20;;;;;;;10.28;70.76;96107.25;4951198;28;20126;-64
2021/05/30 04:16:23;;;;;;;3.50;3.20;;;;;;;10.70;69.10;96115.66;4951476;28;20557;-64
2021/05/30 04:18:48;;;;;;;4.50;3.42;;;;;;;11.01;68.55;96110.88;4951380;28;20039;-64
2021/05/30 04:21:14;;;;;;;3.05;2.83;;;;;;;11.25;67.61;96116.97;4951301;28;20070;-64
2021/05/30 04:23:39;;;;;;;3.42;3.13;;;;;;;11.50;66.62;96121.22;4952920;28;20031;-64
2021/05/30 04:26:04;;;;;;;4.22;2.92;;;;;;;11.72;65.60;96115.34;4951340;28;20042;-64
2021/05/30 04:28:30;;;;;;;5.75;3.10;;;;;;;11.92;64.19;96112.41;4951631;28;20047;-64
2021/05/30 04:30:55;;;;;;;3.38;2.67;;;;;;;12.10;63.28;96118.84;4950265;28;20035;-65
2021/05/30 04:33:21;;;;;;;3.33;3.03;;;;;;;12.22;62.61;96111.19;4950706;28;20400;-65
2021/05/30 04:35:46;;;;;;;4.47;3.97;;;;;;;12.51;62.16;96114.75;4950062;28;20024;-65
2021/05/30 04:38:12;;;;;;;5.32;3.50;;;;;;;12.72;60.89;96110.66;4953312;29;20016;-64
2021/05/30 04:40:37;;;;;;;3.83;3.55;;;;;;;12.74;60.32;96111.16;4951341;28;20079;-64
2021/05/30 04:43:03;;;;;;;3.70;3.28;;;;;;;12.91;60.08;96105.25;4950873;28;20409;-64
2021/05/30 04:45:28;;;;;;;4.10;3.70;;;;;;;13.13;59.68;96104.59;4951059;28;20041;-64
2021/05/30 04:47:53;;;;;;;4.80;3.58;;;;;;;13.28;59.53;96107.00;4951225;28;20034;-64
2021/05/30 04:50:19;;;;;;;4.15;3.75;;;;;;;13.41;59.35;96111.56;4953208;28;20034;-65
2021/05/30 04:52:44;;;;;;;3.50;3.15;;;;;;;13.53;59.04;96113.72;4949482;28;20035;-65
2021/05/30 04:55:11;;;;;;;3.13;2.92;;;;;;;13.58;59.00;96110.16;4949818;28;20039;-65
2021/05/30 04:57:41;;;;;;;4.95;3.40;;;;;;;13.60;58.76;96102.63;4950926;28;20051;-64
2021/05/30 05:00:08;;;;;;;3.92;2.83;;;;;;;13.81;58.05;96113.66;4950965;28;20082;-65
2021/05/30 05:02:34;;;;;;;2.90;2.70;;;;;;;13.89;57.34;96104.94;4950925;28;20032;-64
2021/05/30 05:05:00;;;;;;;3.13;2.83;;;;;;;13.91;56.75;96103.53;4950716;28;20098;-64
2021/05/30 05:07:26;;;;;;;3.90;2.92;;;;;;;14.00;55.86;96100.94;4950627;28;20032;-65
2021/05/30 05:09:51;;;;;;;3.28;2.78;;;;;;;14.18;56.00;96115.28;4950767;28;20050;-65
2021/05/30 05:12:16;;;;;;;3.28;2.97;;;;;;;14.23;55.95;96107.13;4950500;28;20031;-65
2021/05/30 05:14:42;;;;;;;3.83;3.40;;;;;;;14.18;55.62;96097.34;4952532;28;20035;-65
2021/05/30 05:17:07;;;;;;;3.97;3.47;;;;;;;14.21;55.51;96101.28;4949405;28;20508;-65
2021/05/30 05:19:32;;;;;;;3.78;3.42;;;;;;;14.29;55.75;96108.59;4950696;28;20090;-65
2021/05/30 05:21:58;;;;;;;3.70;3.40;;;;;;;14.39;56.15;96115.59;4950699;28;20035;-65
2021/05/30 05:24:23;;;;;;;4.00;3.70;;;;;;;14.44;55.26;96105.56;4949883;28;20046;-65
2021/05/30 05:26:49;;;;;;;4.65;3.47;;;;;;;14.49;55.92;96108.13;4950409;28;20078;-66
2021/05/30 05:29:14;;;;;;;3.90;3.55;;;;;;;14.59;55.80;96100.94;4951130;29;20118;-64
2021/05/30 05:31:39;;;;;;;3.65;3.35;;;;;;;14.50;54.70;96108.94;4950170;28;20158;-64
2021/05/30 05:34:05;;;;;;;3.80;3.50;;;;;;;14.62;54.96;96105.69;4950005;28;20437;-64
2021/05/30 05:36:30;;;;;;;3.65;3.35;;;;;;;14.73;55.23;96109.69;4950474;28;20043;-65
2021/05/30 05:38:56;;;;;;;3.80;3.50;;;;;;;14.64;55.34;96087.41;4950360;28;20035;-67
2021/05/30 05:41:21;;;;;;;4.20;3.53;;;;;;;14.86;55.12;96103.47;4952095;28;20035;-66
2021/05/30 05:43:46;;;;;;;5.03;4.13;;;;;;;14.82;54.87;96111.31;4949979;28;20047;-65
2021/05/30 05:46:12;;;;;;;4.50;3.60;;;;;;;14.89;54.47;96110.09;4950382;28;20090;-66
2021/05/30 05:48:37;;;;;;;4.32;3.92;;;;;;;13.92;54.46;96102.47;4950632;28;20054;-66
2021/05/30 05:51:03;;;;;;;4.38;3.97;;;;;;;14.15;55.43;96097.13;4950534;28;20412;-66
2021/05/30 05:53:28;;;;;;;4.65;3.88;;;;;;;14.33;55.33;96106.91;4950398;29;20051;-68
2021/05/30 05:55:54;;;;;;;4.47;4.18;;;;;;;14.37;54.94;96102.50;4950208;28;20746;-66
2021/05/30 05:58:19;;;;;;;4.25;3.85;;;;;;;14.06;54.88;96110.44;4948924;28;20394;-62
2021/05/30 06:00:45;;;;;;;3.90;3.53;;;;;;;14.33;54.82;96101.53;4950406;28;20043;-67
2021/05/30 06:03:11;;;;;;;3.17;2.97;;;;;;;14.29;54.90;96113.94;4949960;28;20035;-65
2021/05/30 06:05:36;;;;;;;4.82;3.70;;;;;;;14.30;53.63;96107.50;4951759;28;20047;-64
2021/05/30 06:08:02;;;;;;;4.10;3.80;;;;;;;14.31;52.95;96098.38;4950190;28;20126;-65
2021/05/30 06:10:28;;;;;;;4.22;3.92;;;;;;;14.32;53.24;96107.97;4949080;28;20465;-70
2021/05/30 06:13:02;;;;;;;4.45;4.07;;;;;;;14.29;53.28;96105.91;4949887;28;20069;-66
2021/05/30 06:15:28;;;;;;;4.30;4.00;;;;;;;14.22;53.52;96094.81;4950143;28;20039;-64
2021/05/30 06:18:02;;;;;;;4.40;4.10;;;;;;;14.31;52.95;96106.38;4950157;28;20074;-64
2021/05/30 06:20:27;;;;;;;4.47;3.85;;;;;;;14.14;52.66;96111.63;4953967;28;20653;-64
2021/05/30 06:22:54;;;;;;;4.57;4.10;;;;;;;14.13;54.07;96108.16;4953492;28;20127;-64
2021/05/30 06:25:20;;;;;;;4.57;4.28;;;;;;;14.51;53.48;96105.16;4953672;28;20066;-67
2021/05/30 06:27:46;;;;;;;5.95;4.10;;;;;;;14.52;52.25;96099.47;4953845;28;20277;-68
2021/05/30 06:30:12;;;;;;;4.72;4.00;;;;;;;14.63;52.44;96093.88;4953750;28;20043;-64
2021/05/30 06:32:37;;;;;;;4.80;4.18;;;;;;;14.74;52.46;96095.19;4954928;28;20049;-65
2021/05/30 06:35:03;;;;;;;3.85;3.50;;;;;;;14.89;52.03;96094.00;4953551;28;20035;-65
2021/05/30 06:37:29;;;;;;;6.07;4.00;;;;;;;14.65;51.88;96086.34;4953705;28;20453;-63
2021/05/30 06:39:54;;;;;;;5.57;4.15;;;;;;;15.01;51.67;96095.03;4953785;28;20055;-70
2021/05/30 06:42:20;;;;;;;4.20;3.80;;;;;;;14.81;51.96;96095.56;4953011;28;20516;-63
2021/05/30 06:44:45;;;;;;;4.38;4.07;;;;;;;15.07;51.91;96085.75;4955135;28;20031;-67
2021/05/30 06:47:11;;;;;;;4.65;4.25;;;;;;;14.95;51.11;96074.84;4953850;28;20043;-65
2021/05/30 06:49:36;;;;;;;4.00;3.70;;;;;;;15.08;50.92;96071.25;4953549;28;20036;-68
2021/05/30 06:52:02;;;;;;;5.53;3.90;;;;;;;15.04;50.20;96081.00;4953443;28;20032;-65
2021/05/30 06:54:27;;;;;;;5.07;4.60;;;;;;;14.72;49.58;96086.69;4952685;28;20031;-65
2021/05/30 06:56:53;;;;;;;5.00;4.60;;;;;;;14.90;49.57;96077.66;4953100;28;20139;-64
2021/05/30 06:59:19;;;;;;;4.97;4.47;;;;;;;14.43;48.79;96087.09;4954906;28;20054;-64
2021/05/30 07:01:44;;;;;;;4.28;3.97;;;;;;;14.48;49.57;96077.09;4952304;28;20437;-63
2021/05/30 07:04:09;;;;;;;5.60;4.90;;;;;;;14.14;50.84;96074.16;4952670;28;20130;-64
2021/05/30 07:06:35;;;;;;;4.35;3.95;;;;;;;14.31;50.68;96090.34;4952880;28;20430;-65
2021/05/30 07:09:03;;;;;;;4.70;4.25;;;;;;;14.48;51.21;96090.47;4950845;28;20031;-64
2021/05/30 07:11:28;;;;;;;4.38;3.97;;;;;;;14.65;48.52;96092.47;4953919;29;20027;-64
2021/05/30 07:13:54;;;;;;;4.45;3.75;;;;;;;14.83;48.29;96085.31;4952247;28;20058;-64
2021/05/30 07:16:19;;;;;;;4.78;4.10;;;;;;;14.84;47.30;96062.78;4952751;28;20074;-66
2021/05/30 07:18:45;;;;;;;5.63;5.00;;;;;;;14.10;49.00;96083.88;4952562;28;20048;-64
2021/05/30 07:21:10;;;;;;;5.10;4.53;;;;;;;13.96;50.20;96102.63;4952626;28;20413;-64
2021/05/30 07:23:37;;;;;;;4.95;4.47;;;;;;;14.22;49.92;96076.09;4953175;28;20051;-76
2021/05/30 07:26:03;;;;;;;3.75;3.45;;;;;;;14.57;49.05;96085.19;4934538;28;20070;-66
2021/05/30 07:28:29;;;;;;;5.30;4.00;;;;;;;15.03;48.72;96079.44;4948294;28;20042;-72
2021/05/30 07:30:54;;;;;;;4.43;3.88;;;;;;;14.82;48.12;96099.81;4942722;28;20040;-66
2021/05/30 07:33:20;;;;;;;5.30;4.28;;;;;;;13.53;50.66;96100.34;4951883;28;20045;-68
2021/05/30 07:35:45;;;;;;;4.63;3.78;;;;;;;13.48;51.15;96098.56;4954456;28;20027;-64
2021/05/30 07:38:11;;;;;;;4.68;4.20;;;;;;;13.71;50.20;96103.97;4952620;28;20035;-64
2021/05/30 07:40:36;;;;;;;6.15;3.92;;;;;;;13.84;49.61;96102.38;4952519;28;20058;-65
2021/05/30 07:43:02;;;;;;;4.32;3.92;;;;;;;13.98;49.03;96085.22;4951892;28;20047;-63
2021/05/30 07:45:29;;;;;;;4.65;4.10;;;;;;;14.23;48.47;96093.75;4952102;28;20043;-63
2021/05/30 07:47:55;;;;;;;3.78;3.47;;;;;;;14.75;48.40;96102.94;4952043;28;20432;-66
2021/05/30 07:50:20;;;;;;;7.05;5.28;;;;;;;14.48;49.63;96087.00;4953901;28;20019;-64
2021/05/30 07:52:45;;;;;;;4.50;4.20;;;;;;;13.84;50.55;96084.44;4951343;28;20067;-64
2021/05/30 07:55:12;;;;;;;4.40;4.00;;;;;;;14.13;49.41;96075.25;4951825;28;20047;-65
2021/05/30 07:57:37;;;;;;;3.70;3.40;;;;;;;14.33;46.70;96080.13;4952029;28;20453;-65
2021/05/30 08:00:09;;;;;;;3.90;3.22;;;;;;;14.79;48.31;96087.84;4952034;28;20474;-65
2021/05/30 08:02:35;;;;;;;4.00;3.70;;;;;;;15.03;46.71;96063.34;4953316;28;20033;-65
2021/05/30 08:05:01;;;;;;;4.95;2.78;;;;;;;15.51;42.34;96089.38;4951655;28;20051;-64
2021/05/30 08:07:26;;;;;;;3.47;2.30;;;;;;;15.15;41.47;96070.00;4950474;28;20063;-66
2021/05/30 08:09:51;;;;;;;3.38;2.65;;;;;;;16.05;42.54;96081.13;4952008;28;20090;-67
2021/05/30 08:12:17;;;;;;;2.95;2.72;;;;;;;16.51;41.39;96071.59;4951364;28;20567;-66
2021/05/30 08:14:42;;;;;;;3.78;2.80;;;;;;;16.59;40.64;96060.84;4953658;28;20027;-68
2021/05/30 08:17:08;;;;;;;4.25;3.22;;;;;;;17.09;39.76;96062.91;4950327;28;20046;-61
2021/05/30 08:19:35;;;;;;;5.18;2.72;;;;;;;17.00;38.73;96070.25;4951610;28;20035;-66
2021/05/30 08:22:00;;;;;;;2.88;2.40;;;;;;;17.27;36.38;96062.84;4951357;28;20035;-66
2021/05/30 08:24:26;;;;;;;2.30;2.10;;;;;;;17.40;35.10;96072.59;4950917;28;20045;-69
2021/05/30 08:26:54;;;;;;;2.40;1.98;;;;;;;16.28;36.07;96077.16;4951726;28;20036;-69
2021/05/30 08:29:21;;;;;;;3.83;2.55;;;;;;;16.34;37.97;96070.53;4953706;28;20156;-69
2021/05/30 08:31:49;;;;;;;2.00;1.80;;;;;;;17.47;36.60;96080.16;4951878;28;20063;-70
2021/05/30 08:34:14;;;;;;;2.30;1.90;;;;;;;16.86;37.26;96072.34;4950641;28;20090;-69
2021/05/30 08:36:40;;;;;;;3.20;2.20;;;;;;;16.96;37.17;96077.38;4950086;28;20039;-66
2021/05/30 08:39:06;;;;;;;3.58;2.70;;;;;;;15.94;38.63;96095.94;4951153;28;20066;-70
2021/05/30 08:41:31;;;;;;;3.60;2.75;;;;;;;14.86;41.26;96089.28;4953230;28;20392;-69
2021/05/30 08:43:57;;;;;;;3.45;2.50;;;;;;;14.96;41.22;96084.44;4933157;28;20083;-69
2021/05/30 08:46:22;;;;;;;2.80;2.60;;;;;;;14.44;43.43;96092.16;4944821;28;20036;-66
2021/05/30 08:48:48;;;;;;;3.13;2.83;;;;;;;14.98;43.13;96084.91;4951270;28;20655;-68
2021/05/30 08:51:15;;;;;;;4.05;2.45;;;;;;;15.99;40.83;96088.53;4950813;28;20074;-67
2021/05/30 08:53:43;;;;;;;2.92;2.45;;;;;;;14.84;41.53;96086.91;4952839;28;20421;-68
2021/05/30 08:56:09;;;;;;;2.30;2.20;;;;;;;15.38;40.24;96086.81;4950998;28;20418;-66
2021/05/30 08:58:42;;;;;;;2.97;2.22;;;;;;;14.90;39.72;96069.63;4951150;28;20047;-66
2021/05/30 09:01:10;;;;;;;2.88;2.25;;;;;;;15.83;37.87;96077.47;4950799;28;20478;-65
2021/05/30 09:03:49;;;;;;;3.63;2.28;;;;;;;15.22;40.60;96062.31;4950322;28;20043;-65
2021/05/30 09:06:15;;;;;;;2.53;2.30;;;;;;;15.23;40.61;96075.41;4950820;28;20047;-65
2021/05/30 09:08:42;;;;;;;2.95;2.10;;;;;;;16.20;35.95;96075.28;4952682;28;20036;-66
2021/05/30 09:11:08;;;;;;;3.55;2.05;;;;;;;16.93;35.66;96061.88;4951114;28;20031;-66
2021/05/30 09:13:39;;;;;;;3.35;2.28;;;;;;;17.06;36.18;96055.53;4950880;28;20066;-80
2021/05/30 09:18:34;;;;;;;2.35;1.92;;;;;;;18.38;33.82;96068.63;4951058;28;20482;-72
2021/05/30 09:21:05;;;;;;;2.88;2.28;;;;;;;18.28;32.79;96066.31;4950921;28;20548;-73
2021/05/30 09:23:33;;;;;;;3.28;2.10;;;;;;;17.52;34.87;96074.59;4952024;28;20107;-72
2021/05/30 09:26:28;;;;;;;2.50;2.30;;;;;;;16.95;35.89;96073.13;4950599;28;20043;-68
2021/05/30 09:29:11;;;;;;;2.65;2.15;;;;;;;17.02;36.62;96070.72;4948907;28;20040;-65
2021/05/30 09:31:59;;;;;;;2.90;2.40;;;;;;;16.69;36.31;96070.47;4950403;28;20067;-64
2021/05/30 09:34:24;;;;;;;2.92;2.33;;;;;;;15.65;39.28;96067.81;4950642;28;20130;-63
2021/05/30 09:36:51;;;;;;;2.55;2.35;;;;;;;15.90;40.35;96081.56;4950705;28;20604;-61
2021/05/30 09:39:32;;;;;;;2.72;2.53;;;;;;;16.25;38.82;96059.00;4950534;28;20024;-60
2021/05/30 09:42:27;;;;;;;2.65;2.40;;;;;;;16.30;38.63;96076.84;4950372;28;20043;-61
2021/05/30 09:45:00;;;;;;;2.42;2.22;;;;;;;16.60;37.84;96067.81;4950405;28;20027;-60
2021/05/30 09:47:44;;;;;;;2.83;2.10;;;;;;;16.28;37.48;96071.00;4952166;28;20020;-60
2021/05/30 09:50:13;;;;;;;3.25;2.55;;;;;;;16.38;36.01;95982.09;4950475;28;20524;-60
2021/05/30 09:52:41;;;;;;;2.00;1.90;;;;;;;17.75;34.60;96062.44;4949867;28;20131;-61
2021/05/30 09:55:29;;;;;;;2.40;2.20;;;;;;;17.22;34.05;96065.72;4951664;28;20039;-60
2021/05/30 09:58:15;;;;;;;4.13;2.42;;;;;;;16.54;33.72;96063.72;4954105;28;20043;-60
2021/05/30 10:00:50;;;;;;;2.97;2.08;;;;;;;16.29;34.79;96065.31;4954118;28;20591;-60
2021/05/30 10:03:16;;;;;;;2.45;2.13;;;;;;;16.69;34.04;96067.78;4952462;28;20047;-60
2021/05/30 10:05:41;;;;;;;4.90;2.40;;;;;;;16.59;34.20;96066.22;4956018;28;20039;-60
2021/05/30 10:08:07;;;;;;;2.20;1.80;;;;;;;16.05;34.50;96073.84;4954124;28;20138;-59
2021/05/30 10:10:32;;;;;;;2.20;2.00;;;;;;;16.46;33.70;96058.34;4953993;28;20397;-60
2021/05/30 10:13:01;;;;;;;3.58;2.03;;;;;;;17.17;31.44;96050.56;4953270;28;20044;-60
2021/05/30 10:15:26;;;;;;;2.22;2.03;;;;;;;17.86;32.34;96062.84;4953996;28;20091;-60
2021/05/30 10:17:55;;;;;;;2.83;2.00;;;;;;;18.10;30.86;96060.28;4954048;28;20343;-60
2021/05/30 10:20:23;;;;;;;2.40;2.20;;;;;;;18.06;30.77;96062.06;4955640;28;20122;-59
2021/05/30 10:22:54;;;;;;;3.20;2.25;;;;;;;16.73;33.72;96066.03;4953505;28;20096;-60
2021/05/30 10:25:30;;;;;;;2.72;2.10;;;;;;;17.55;32.86;96055.88;4953397;28;20059;-60
2021/05/30 10:28:19;;;;;;;2.70;2.50;;;;;;;18.65;32.28;96056.44;4953594;28;20094;-60
2021/05/30 10:30:50;;;;;;;2.75;2.00;;;;;;;17.23;32.54;96056.53;4953617;28;20067;-60
2021/05/30 10:33:22;;;;;;;1.80;1.70;;;;;;;18.10;32.14;96049.50;4953086;28;20175;-60
2021/05/30 10:35:48;;;;;;;2.85;2.08;;;;;;;17.64;32.44;96062.00;4953724;28;20102;-61
2021/05/30 10:38:38;;;;;;;2.60;2.40;;;;;;;16.66;32.96;96059.56;4955456;28;20031;-60
2021/05/30 10:41:15;;;;;;;2.53;2.20;;;;;;;17.25;31.42;96062.38;4956121;28;20039;-65
2021/05/30 10:43:41;;;;;;;2.65;2.20;;;;;;;16.36;33.22;96052.19;4953022;28;20085;-65
2021/05/30 10:46:07;;;;;;;2.80;2.15;;;;;;;17.15;32.58;96061.66;4951871;28;20084;-65
2021/05/30 10:48:34;;;;;;;2.72;2.40;;;;;;;17.98;31.15;96048.69;4953432;28;20043;-68
2021/05/30 10:54:11;;;;;;;3.33;2.58;;;;;;;16.57;33.58;96063.06;4955040;28;20078;-65
2021/05/30 10:56:40;;;;;;;2.40;2.20;;;;;;;15.97;35.01;96069.28;4951175;28;20052;-63
2021/05/30 10:59:12;;;;;;;2.97;2.35;;;;;;;15.79;35.23;96065.78;4952687;28;20098;-64
2021/05/30 11:01:40;;;;;;;5.22;2.70;;;;;;;15.65;35.24;96072.38;4953287;28;20075;-63
2021/05/30 11:06:51;;;;;;;2.95;2.60;;;;;;;17.15;33.02;96058.19;4953008;28;20051;-63
2021/05/30 11:09:17;;;;;;;3.60;2.80;;;;;;;15.57;32.86;96068.56;4953250;28;20158;-64
2021/05/30 11:11:43;;;;;;;2.80;2.50;;;;;;;15.08;34.59;96073.94;4954756;28;20035;-65
2021/05/30 11:14:13;;;;;;;3.08;2.50;;;;;;;15.53;34.51;96063.03;4952576;28;20042;-65
2021/05/30 11:16:43;;;;;;;2.25;2.03;;;;;;;15.98;34.35;96049.38;4952893;28;20055;-65
2021/05/30 11:19:10;;;;;;;2.45;2.25;;;;;;;16.57;31.85;96051.53;4953041;28;20039;-65
2021/05/30 11:21:38;;;;;;;4.80;2.47;;;;;;;17.15;31.96;96050.13;4953018;28;20035;-68
2021/05/30 11:24:05;;;;;;;2.85;2.55;;;;;;;16.54;32.83;96058.34;4952279;28;20019;-65
2021/05/30 11:26:31;;;;;;;2.78;2.53;;;;;;;17.43;32.79;96055.81;4954680;28;20110;-65
2021/05/30 11:28:56;;;;;;;4.38;2.50;;;;;;;16.72;34.34;96063.69;4952917;28;20126;-63
2021/05/30 11:31:22;;;;;;;3.75;2.80;;;;;;;16.26;35.47;96047.16;4952778;28;20041;-65
2021/05/30 11:34:06;;;;;;;3.22;2.70;;;;;;;15.88;35.63;96052.38;4950855;28;20039;-65
2021/05/30 11:36:34;;;;;;;2.78;2.50;;;;;;;16.33;36.07;96049.38;4952245;28;20040;-64
2021/05/30 11:39:12;;;;;;;2.90;2.70;;;;;;;16.07;36.31;96055.56;4952033;28;20057;-65
2021/05/30 11:41:42;;;;;;;3.78;3.45;;;;;;;16.81;35.76;96043.75;4954270;28;20367;-64
2021/05/30 11:44:15;;;;;;;3.13;2.90;;;;;;;16.29;36.43;96051.13;4950502;28;20498;-63